createdAt,value
2019-02-20T00:00:27.086Z,101289.39
2019-02-20T00:02:57.450Z,101292.69
2019-02-20T00:05:27.938Z,101300.11
2019-02-20T00:07:58.482Z,101301.87
2019-02-20T00:10:29.014Z,101303.11
2019-02-20T00:12:59.488Z,101305.55
2019-02-20T00:15:30.007Z,101310.83
2019-02-20T00:18:00.475Z,101315.20
2019-02-20T00:20:30.937Z,101315.11
2019-02-20T00:23:01.422Z,101325.25
2019-02-20T00:25:31.909Z,101318.23
2019-02-20T00:28:02.374Z,101328.91
2019-02-20T00:30:32.901Z,101320.67
2019-02-20T00:33:03.737Z,101322.34
2019-02-20T00:35:34.192Z,101325.25
2019-02-20T00:38:04.694Z,101328.06
2019-02-20T00:40:35.114Z,101342.53
2019-02-20T00:43:05.582Z,101334.65
2019-02-20T00:45:45.464Z,101338.37
2019-02-20T00:48:23.062Z,101332.19
2019-02-20T00:50:58.590Z,101329.77
2019-02-20T00:53:36.536Z,101323.93
2019-02-20T00:56:07.041Z,101337.83
2019-02-20T00:58:37.601Z,101328.55
2019-02-20T01:01:08.063Z,101347.03
2019-02-20T01:03:38.550Z,101340.85
2019-02-20T01:06:08.999Z,101340.85
2019-02-20T01:08:39.517Z,101338.95
2019-02-20T01:11:09.990Z,101337.55
2019-02-20T01:13:40.449Z,101345.61
2019-02-20T01:16:10.894Z,101339.72
2019-02-20T01:18:41.461Z,101349.28
2019-02-20T01:21:11.936Z,101342.98
2019-02-20T01:23:42.487Z,101338.39
2019-02-20T01:26:12.971Z,101336.16
2019-02-20T01:28:43.432Z,101337.75
2019-02-20T01:31:13.932Z,101340.56
2019-02-20T01:33:44.651Z,101341.41
2019-02-20T01:36:15.117Z,101349.28
2019-02-20T01:38:45.577Z,101355.30
2019-02-20T01:41:15.999Z,101350.67
2019-02-20T01:43:46.486Z,101356.42
2019-02-20T01:46:16.961Z,101350.61
2019-02-20T01:48:47.553Z,101337.36
2019-02-20T01:51:18.039Z,101346.92
2019-02-20T01:53:48.398Z,101357.91
2019-02-20T01:56:18.901Z,101353.97
2019-02-20T01:58:49.392Z,101351.17
2019-02-20T02:01:19.839Z,101352.83
2019-02-20T02:03:50.337Z,101357.34
2019-02-20T02:06:20.843Z,101340.46
2019-02-20T02:08:51.342Z,101346.37
2019-02-20T02:11:21.822Z,101347.39
2019-02-20T02:13:52.199Z,101352.09
2019-02-20T02:16:22.662Z,101360.06
2019-02-20T02:18:53.111Z,101356.67
2019-02-20T02:21:23.628Z,101351.81
2019-02-20T02:23:54.098Z,101360.91
2019-02-20T02:26:24.620Z,101354.89
2019-02-20T02:28:55.129Z,101350.22
2019-02-20T02:31:25.600Z,101353.39
2019-02-20T02:33:56.181Z,101342.34
2019-02-20T02:36:26.598Z,101349.84
2019-02-20T02:38:57.046Z,101348.33
2019-02-20T02:41:27.517Z,101354.16
2019-02-20T02:43:58.010Z,101347.42
2019-02-20T02:46:28.457Z,101356.97
2019-02-20T02:48:58.962Z,101360.92
2019-02-20T02:51:29.436Z,101357.27
2019-02-20T02:53:59.889Z,101352.09
2019-02-20T02:56:30.313Z,101345.36
2019-02-20T02:59:00.819Z,101354.14
2019-02-20T03:01:31.231Z,101347.98
2019-02-20T03:04:01.698Z,101345.52
2019-02-20T03:06:32.177Z,101348.14
2019-02-20T03:09:03.043Z,101356.14
2019-02-20T03:11:33.657Z,101350.77
2019-02-20T03:14:04.124Z,101355.93
2019-02-20T03:16:34.616Z,101362.05
2019-02-20T03:19:05.144Z,101363.53
2019-02-20T03:21:35.637Z,101366.16
2019-02-20T03:24:06.298Z,101365.05
2019-02-20T03:26:36.798Z,101357.73
2019-02-20T03:29:07.217Z,101363.44
2019-02-20T03:31:37.719Z,101362.78
2019-02-20T03:34:09.074Z,101362.98
2019-02-20T03:36:39.801Z,101353.87
2019-02-20T03:39:10.292Z,101361.27
2019-02-20T03:41:40.746Z,101362.05
2019-02-20T03:44:11.248Z,101362.69
2019-02-20T03:46:41.679Z,101368.61
2019-02-20T03:49:12.177Z,101365.14
2019-02-20T03:51:42.675Z,101374.78
2019-02-20T03:54:13.240Z,101367.67
2019-02-20T03:56:43.750Z,101371.33
2019-02-20T03:59:14.246Z,101372.35
2019-02-20T04:01:44.761Z,101373.66
2019-02-20T04:04:15.374Z,101368.13
2019-02-20T05:01:23.220Z,101381.34
2019-02-20T05:03:53.712Z,101383.48
2019-02-20T05:06:24.265Z,101377.20
2019-02-20T05:08:54.814Z,101389.55
2019-02-20T05:11:25.521Z,101393.48
2019-02-20T05:13:56.123Z,101398.94
2019-02-20T05:16:26.742Z,101401.30
2019-02-20T05:18:57.366Z,101399.87
2019-02-20T05:21:27.909Z,101399.70
2019-02-20T05:23:58.620Z,101405.53
2019-02-20T05:26:29.132Z,101391.46
2019-02-20T05:28:59.609Z,101393.31
2019-02-20T05:31:30.266Z,101391.63
2019-02-20T05:34:01.123Z,101390.52
2019-02-20T05:36:31.632Z,101386.02
2019-02-20T05:39:02.355Z,101390.04
2019-02-20T05:41:32.848Z,101388.93
2019-02-20T05:44:03.323Z,101399.52
2019-02-20T05:46:33.910Z,101393.28
2019-02-20T05:49:04.441Z,101401.56
2019-02-20T05:51:34.923Z,101397.97
2019-02-20T05:54:05.528Z,101404.73
2019-02-20T05:56:36.097Z,101409.15
2019-02-20T05:59:06.630Z,101408.30
2019-02-20T06:01:37.144Z,101415.88
2019-02-20T06:04:07.691Z,101414.20
2019-02-20T06:06:38.149Z,101410.95
2019-02-20T06:09:08.833Z,101412.59
2019-02-20T06:11:39.483Z,101416.53
2019-02-20T06:14:10.033Z,101423.67
2019-02-20T06:16:40.620Z,101427.44
2019-02-20T06:19:11.199Z,101424.44
2019-02-20T06:21:41.589Z,101437.53
2019-02-20T06:24:12.134Z,101430.02
2019-02-20T06:26:42.630Z,101431.91
2019-02-20T06:29:13.207Z,101431.17
2019-02-20T06:31:43.816Z,101433.26
2019-02-20T06:34:14.432Z,101435.67
2019-02-20T06:36:45.019Z,101425.92
2019-02-20T06:39:15.948Z,101432.11
2019-02-20T06:41:48.873Z,101434.37
2019-02-20T06:44:19.488Z,101439.20
2019-02-20T06:46:49.973Z,101433.39
2019-02-20T06:49:20.498Z,101442.32
2019-02-20T06:51:51.096Z,101439.41
2019-02-20T06:54:21.609Z,101451.22
2019-02-20T06:56:52.105Z,101457.78
2019-02-20T06:59:22.696Z,101450.69
2019-02-20T07:01:53.175Z,101449.09
2019-02-20T07:04:23.658Z,101453.39
2019-02-20T07:07:58.348Z,101458.44
2019-02-20T07:11:09.647Z,101465.66
2019-02-20T07:14:09.369Z,101465.95
2019-02-20T07:17:30.550Z,101460.41
2019-02-20T07:20:50.203Z,101469.14
2019-02-20T07:23:43.687Z,101459.39
2019-02-20T07:27:05.298Z,101469.27
2019-02-20T07:30:05.077Z,101473.38
2019-02-20T07:32:35.690Z,101481.65
2019-02-20T07:35:08.055Z,101479.40
2019-02-20T07:37:38.590Z,101481.08
2019-02-20T07:40:12.330Z,101482.10
2019-02-20T07:42:42.835Z,101485.63
2019-02-20T07:45:15.584Z,101490.87
2019-02-20T07:47:46.067Z,101491.21
2019-02-20T07:50:20.368Z,101499.69
2019-02-20T07:52:52.220Z,101500.69
2019-02-20T07:55:22.717Z,101507.38
2019-02-20T07:57:53.318Z,101506.55
2019-02-20T08:00:23.885Z,101510.69
2019-02-20T08:02:54.408Z,101518.56
2019-02-20T08:05:24.938Z,101518.48
2019-02-20T08:07:55.474Z,101535.67
2019-02-20T08:10:26.003Z,101533.53
2019-02-20T08:12:56.499Z,101533.53
2019-02-20T08:15:27.061Z,101540.50
2019-02-20T08:18:00.320Z,101536.64
2019-02-20T08:20:30.896Z,101542.75
2019-02-20T08:23:01.380Z,101540.75
2019-02-20T08:25:31.947Z,101543.49
2019-02-20T08:28:02.482Z,101541.61
2019-02-20T08:30:33.101Z,101551.55
2019-02-20T08:33:03.550Z,101551.55
2019-02-20T08:35:34.048Z,101555.52
2019-02-20T08:38:04.574Z,101565.94
2019-02-20T08:40:38.143Z,101563.97
2019-02-20T08:43:08.725Z,101564.31
2019-02-20T08:45:39.254Z,101568.00
2019-02-20T08:48:09.797Z,101570.93
2019-02-20T08:50:40.278Z,101575.62
2019-02-20T08:53:10.801Z,101573.36
2019-02-20T08:55:41.314Z,101574.13
2019-02-20T08:58:11.743Z,101581.45
2019-02-20T09:00:42.269Z,101584.36
2019-02-20T09:03:12.817Z,101594.20
2019-02-20T09:05:43.330Z,101597.30
2019-02-20T09:08:14.262Z,101597.67
2019-02-20T09:10:44.779Z,101594.59
2019-02-20T09:13:15.281Z,101595.73
2019-02-20T09:15:48.340Z,101598.50
2019-02-20T09:18:18.151Z,101597.02
2019-02-20T09:20:48.644Z,101607.92
2019-02-20T09:23:22.131Z,101610.67
2019-02-20T09:25:53.409Z,101613.16
2019-02-20T09:28:23.952Z,101619.95
2019-02-20T09:30:54.525Z,101615.81
2019-02-20T09:33:25.016Z,101623.16
2019-02-20T09:35:55.600Z,101627.27
2019-02-20T09:38:26.049Z,101620.78
2019-02-20T09:40:56.643Z,101626.34
2019-02-20T09:43:27.284Z,101630.20
2019-02-20T09:45:57.806Z,101629.64
2019-02-20T09:48:28.298Z,101631.62
2019-02-20T09:50:58.865Z,101636.52
2019-02-20T09:53:29.395Z,101644.42
2019-02-20T09:55:59.946Z,101644.67
2019-02-20T09:58:30.469Z,101647.52
2019-02-20T10:01:02.748Z,101643.36
2019-02-20T10:03:33.238Z,101653.44
2019-02-20T10:11:22.778Z,101663.58
2019-02-20T10:13:53.504Z,101663.36
2019-02-20T10:16:24.021Z,101667.06
2019-02-20T10:18:54.904Z,101660.40
2019-02-20T10:21:25.501Z,101659.63
2019-02-20T10:23:56.551Z,101662.62
2019-02-20T10:26:27.144Z,101668.47
2019-02-20T10:28:57.893Z,101668.30
2019-02-20T10:31:28.370Z,101675.44
2019-02-20T10:33:58.939Z,101685.10
2019-02-20T10:36:29.901Z,101680.67
2019-02-20T10:39:00.432Z,101681.16
2019-02-20T10:41:30.960Z,101685.59
2019-02-20T10:44:01.639Z,101691.50
2019-02-20T10:46:32.159Z,101691.20
2019-02-20T10:49:02.730Z,101687.06
2019-02-20T10:51:33.301Z,101691.13
2019-02-20T10:54:03.899Z,101692.52
2019-02-20T10:56:34.499Z,101692.72
2019-02-20T10:59:05.105Z,101695.17
2019-02-20T11:01:35.645Z,101704.95
2019-02-20T11:04:06.268Z,101702.13
2019-02-20T11:06:36.775Z,101704.10
2019-02-20T11:09:07.830Z,101700.23
2019-02-20T11:11:38.384Z,101703.26
2019-02-20T11:14:08.980Z,101713.20
2019-02-20T11:16:39.609Z,101704.92
2019-02-20T11:19:10.172Z,101714.14
2019-02-20T11:21:40.686Z,101710.19
2019-02-20T11:24:11.417Z,101713.22
2019-02-20T11:26:50.462Z,101707.47
2019-02-20T11:29:14.139Z,101712.66
2019-02-20T11:31:44.687Z,101714.52
2019-02-20T11:34:15.239Z,101711.52
2019-02-20T11:36:45.732Z,101712.07
2019-02-20T11:39:16.400Z,101708.59
2019-02-20T11:41:46.944Z,101714.72
2019-02-20T11:44:21.022Z,101716.98
2019-02-20T11:46:49.760Z,101715.39
2019-02-20T11:49:20.282Z,101716.23
2019-02-20T11:51:50.765Z,101722.61
2019-02-20T11:54:21.286Z,101720.17
2019-02-20T11:56:51.825Z,101718.48
2019-02-20T11:59:22.337Z,101718.30
2019-02-20T12:01:53.363Z,101719.62
2019-02-20T12:04:23.983Z,101712.28
2019-02-20T12:06:54.465Z,101715.77
2019-02-20T12:09:25.070Z,101719.53
2019-02-20T12:11:55.820Z,101716.23
2019-02-20T12:14:26.362Z,101714.43
2019-02-20T12:16:56.911Z,101712.84
2019-02-20T12:19:27.465Z,101712.63
2019-02-20T12:21:58.029Z,101713.55
2019-02-20T12:24:28.579Z,101717.25
2019-02-20T12:26:59.297Z,101718.41
2019-02-20T12:29:30.171Z,101711.40
2019-02-20T12:32:00.694Z,101715.27
2019-02-20T12:34:31.228Z,101719.18
2019-02-20T12:37:01.812Z,101720.31
2019-02-20T12:39:32.375Z,101719.95
2019-02-20T12:42:02.941Z,101714.63
2019-02-20T12:44:33.529Z,101720.68
2019-02-20T12:47:04.081Z,101722.36
2019-02-20T12:49:34.686Z,101716.50
2019-02-20T12:52:05.182Z,101712.23
2019-02-20T12:54:35.722Z,101720.58
2019-02-20T12:57:06.248Z,101725.25
2019-02-20T12:59:36.909Z,101723.00
2019-02-20T13:02:07.791Z,101719.21
2019-02-20T13:04:38.448Z,101720.00
2019-02-20T13:07:08.969Z,101716.60
2019-02-20T13:09:39.615Z,101716.87
2019-02-20T13:12:10.099Z,101713.87
2019-02-20T13:14:40.631Z,101716.77
2019-02-20T13:17:11.201Z,101710.88
2019-02-20T13:19:41.791Z,101711.40
2019-02-20T13:22:12.292Z,101711.40
2019-02-20T13:24:43.983Z,101714.03
2019-02-20T13:27:22.576Z,101719.43
2019-02-20T13:29:46.886Z,101710.09
2019-02-20T13:32:23.270Z,101715.16
2019-02-20T13:34:53.786Z,101711.03
2019-02-20T13:37:25.130Z,101717.23
2019-02-20T13:39:55.774Z,101708.73
2019-02-20T13:42:26.351Z,101704.20
2019-02-20T13:44:56.959Z,101705.91
2019-02-20T13:47:27.525Z,101710.84
2019-02-20T13:49:58.058Z,101716.67
2019-02-20T13:52:30.420Z,101726.62
2019-02-20T13:55:01.056Z,101713.16
2019-02-20T13:57:31.621Z,101709.42
2019-02-20T14:00:02.243Z,101704.87
2019-02-20T14:02:32.785Z,101708.57
2019-02-20T14:05:03.444Z,101714.48
2019-02-20T14:07:34.086Z,101713.79
2019-02-20T14:10:06.609Z,101707.95
2019-02-20T14:12:37.617Z,101707.36
2019-02-20T14:15:10.257Z,101712.09
2019-02-20T14:17:40.860Z,101701.27
2019-02-20T14:20:12.089Z,101697.34
2019-02-20T14:22:43.162Z,101690.59
2019-02-20T14:25:13.837Z,101692.81
2019-02-20T14:27:44.422Z,101688.75
2019-02-20T14:30:14.983Z,101691.18
2019-02-20T14:32:46.886Z,101702.84
2019-02-20T14:35:17.469Z,101709.48
2019-02-20T14:37:48.046Z,101708.66
2019-02-20T14:40:18.529Z,101706.23
2019-02-20T14:42:49.000Z,101715.62
2019-02-20T14:45:19.549Z,101703.74
2019-02-20T14:47:50.027Z,101705.88
2019-02-20T14:50:20.795Z,101702.19
2019-02-20T14:52:51.305Z,101698.47
2019-02-20T14:55:40.900Z,101693.88
2019-02-20T14:58:11.528Z,101692.46
2019-02-20T15:00:42.459Z,101692.07
2019-02-20T15:03:12.986Z,101691.84
2019-02-20T15:05:43.586Z,101691.80
2019-02-20T15:08:14.106Z,101702.06
2019-02-20T15:10:44.658Z,101697.87
2019-02-20T15:13:15.175Z,101701.28
2019-02-20T15:15:47.392Z,101705.17
2019-02-20T15:18:18.156Z,101706.00
2019-02-20T15:20:48.900Z,101706.18
2019-02-20T15:23:19.364Z,101703.20
2019-02-20T15:25:49.874Z,101702.78
2019-02-20T15:28:20.732Z,101701.05
2019-02-20T15:30:51.211Z,101702.76
2019-02-20T15:33:23.425Z,101706.59
2019-02-20T15:35:54.133Z,101705.32
2019-02-20T15:38:24.662Z,101699.95
2019-02-20T15:40:55.176Z,101704.34
2019-02-20T15:43:25.710Z,101707.07
2019-02-20T15:45:56.214Z,101710.16
2019-02-20T15:48:26.848Z,101706.34
2019-02-20T15:50:57.444Z,101718.98
2019-02-20T15:53:27.947Z,101710.34
2019-02-20T15:55:58.546Z,101714.34
2019-02-20T15:58:29.094Z,101702.67
2019-02-20T16:00:59.655Z,101698.98
2019-02-20T16:03:30.123Z,101713.04
2019-02-20T16:06:00.834Z,101707.58
2019-02-20T16:08:31.443Z,101710.22
2019-02-20T16:11:02.267Z,101717.94
2019-02-20T16:13:32.857Z,101716.27
2019-02-20T16:16:03.426Z,101711.27
2019-02-20T16:18:33.969Z,101712.66
2019-02-20T16:21:05.111Z,101714.16
2019-02-20T16:23:36.303Z,101708.31
2019-02-20T16:26:06.898Z,101722.94
2019-02-20T16:28:37.527Z,101724.55
2019-02-20T16:31:07.994Z,101717.25
2019-02-20T16:33:38.814Z,101724.91
2019-02-20T16:36:09.411Z,101728.81
2019-02-20T16:38:40.204Z,101731.54
2019-02-20T16:41:10.774Z,101725.91
2019-02-20T16:43:41.333Z,101724.50
2019-02-20T16:46:11.972Z,101728.91
2019-02-20T16:48:43.214Z,101734.49
2019-02-20T16:51:13.841Z,101731.59
2019-02-20T16:53:44.556Z,101736.22
2019-02-20T16:56:15.209Z,101730.30
2019-02-20T16:58:45.775Z,101731.98
2019-02-20T17:01:17.790Z,101734.44
2019-02-20T17:03:48.339Z,101731.80
2019-02-20T17:06:19.398Z,101738.76
2019-02-20T17:08:50.217Z,101744.58
2019-02-20T17:11:20.834Z,101743.48
2019-02-20T17:13:51.319Z,101744.16
2019-02-20T17:16:22.485Z,101750.89
2019-02-20T17:18:53.168Z,101754.39
2019-02-20T17:21:23.682Z,101755.39
2019-02-20T17:23:54.233Z,101763.42
2019-02-20T17:26:24.723Z,101762.02
2019-02-20T17:28:55.207Z,101769.89
2019-02-20T17:31:25.739Z,101769.61
2019-02-20T17:33:56.584Z,101770.02
2019-02-20T17:36:27.110Z,101773.02
2019-02-20T17:38:57.588Z,101787.81
2019-02-20T17:41:28.094Z,101783.11
2019-02-20T17:43:58.561Z,101783.30
2019-02-20T17:46:29.029Z,101789.02
2019-02-20T17:48:59.578Z,101786.41
2019-02-20T17:51:30.298Z,101790.16
2019-02-20T17:54:00.796Z,101793.26
2019-02-20T17:56:31.301Z,101775.77
2019-02-20T17:59:01.840Z,101780.75
2019-02-20T18:01:32.384Z,101783.84
2019-02-20T18:04:02.929Z,101777.91
2019-02-20T18:06:33.441Z,101780.55
2019-02-20T18:09:04.504Z,101784.13
2019-02-20T18:11:34.984Z,101784.30
2019-02-20T18:14:05.492Z,101786.93
2019-02-20T18:16:35.956Z,101774.52
2019-02-20T18:19:06.453Z,101781.11
2019-02-20T18:21:37.003Z,101779.30
2019-02-20T18:24:07.598Z,101785.80
2019-02-20T18:26:38.091Z,101784.20
2019-02-20T18:29:08.603Z,101783.38
2019-02-20T18:31:39.025Z,101782.77
2019-02-20T18:34:09.553Z,101790.98
2019-02-20T18:36:40.047Z,101793.49
2019-02-20T18:39:10.623Z,101796.16
2019-02-20T18:41:41.073Z,101788.98
2019-02-20T18:44:11.654Z,101791.06
2019-02-20T18:46:42.157Z,101784.51
2019-02-20T18:49:12.665Z,101790.12
2019-02-20T18:51:43.191Z,101784.70
2019-02-20T18:54:13.748Z,101777.70
2019-02-20T18:56:44.159Z,101783.92
2019-02-20T18:59:14.640Z,101785.06
2019-02-20T19:01:45.092Z,101786.56
2019-02-20T19:04:15.601Z,101791.44
2019-02-20T19:06:46.156Z,101787.33
2019-02-20T19:09:24.534Z,101783.74
2019-02-20T19:12:46.503Z,101783.34
2019-02-20T19:16:04.762Z,101781.30
2019-02-20T19:19:09.617Z,101781.66
2019-02-20T19:22:26.756Z,101785.61
2019-02-20T19:25:46.534Z,101793.55
2019-02-20T19:29:15.563Z,101796.16
2019-02-20T19:32:41.455Z,101793.92
2019-02-20T19:36:03.377Z,101789.20
2019-02-20T19:39:37.761Z,101797.38
2019-02-20T19:43:02.363Z,101797.87
2019-02-20T19:46:31.013Z,101788.25
2019-02-20T19:50:10.899Z,101796.89
2019-02-20T19:53:29.431Z,101788.22
2019-02-20T19:56:31.703Z,101787.48
2019-02-20T20:00:16.856Z,101782.03
2019-02-20T20:03:33.575Z,101783.72
2019-02-20T20:07:04.098Z,101788.34
2019-02-20T20:10:22.429Z,101783.38
2019-02-20T20:13:35.481Z,101779.61
2019-02-20T20:17:04.624Z,101779.97
2019-02-20T20:20:12.715Z,101777.70
2019-02-20T20:23:49.578Z,101778.66
2019-02-20T20:27:25.049Z,101778.11
2019-02-20T20:31:13.692Z,101776.48
2019-02-20T20:35:10.446Z,101776.60
2019-02-20T20:38:46.652Z,101777.91
2019-02-20T20:42:36.605Z,101773.04
2019-02-20T20:46:25.410Z,101780.00
2019-02-20T20:50:01.031Z,101775.19
2019-02-20T20:52:56.093Z,101785.08
2019-02-20T20:56:35.858Z,101781.59
2019-02-20T20:59:44.459Z,101787.90
2019-02-20T21:02:42.434Z,101789.03
2019-02-20T21:05:53.029Z,101792.14
2019-02-20T21:09:04.176Z,101787.81
2019-02-20T21:12:39.058Z,101780.94
2019-02-20T21:15:47.690Z,101783.36
2019-02-20T21:18:58.844Z,101785.63
2019-02-20T21:22:19.494Z,101778.69
2019-02-20T21:25:51.794Z,101788.27
2019-02-20T21:29:11.156Z,101785.08
2019-02-20T21:33:00.343Z,101786.31
2019-02-20T21:35:52.262Z,101785.36
2019-02-20T21:39:33.882Z,101784.51
2019-02-20T21:42:43.836Z,101786.00
2019-02-20T21:46:02.768Z,101772.55
2019-02-20T21:49:07.393Z,101778.96
2019-02-20T21:52:49.657Z,101785.61
2019-02-20T21:55:58.453Z,101786.20
2019-02-20T21:58:51.017Z,101781.66
2019-02-20T22:02:06.184Z,101782.98
2019-02-20T22:05:42.114Z,101783.19
2019-02-20T22:27:52.951Z,101792.59
2019-02-20T22:31:19.921Z,101790.90
2019-02-20T22:34:39.117Z,101793.27
2019-02-20T22:37:56.059Z,101790.14
2019-02-20T22:41:03.430Z,101791.09
2019-02-20T22:44:07.193Z,101787.31
2019-02-20T22:47:11.980Z,101789.22
2019-02-20T22:50:43.157Z,101792.52
2019-02-20T22:54:14.455Z,101785.91
2019-02-20T22:57:34.528Z,101783.58
2019-02-20T23:01:01.410Z,101777.91
2019-02-20T23:04:16.922Z,101780.11
2019-02-20T23:07:59.246Z,101783.76
2019-02-20T23:11:29.266Z,101778.98
2019-02-20T23:14:45.535Z,101779.34
2019-02-20T23:17:16.019Z,101782.46
2019-02-20T23:19:46.523Z,101780.74
2019-02-20T23:22:17.116Z,101779.15
2019-02-20T23:24:47.677Z,101780.01
2019-02-20T23:27:18.217Z,101784.33
2019-02-20T23:29:48.962Z,101782.08
2019-02-20T23:32:19.487Z,101782.83
2019-02-20T23:34:50.047Z,101782.06
2019-02-20T23:37:20.674Z,101779.64
2019-02-20T23:39:51.202Z,101784.70
2019-02-20T23:42:21.894Z,101786.48
2019-02-20T23:44:52.482Z,101783.12
2019-02-20T23:47:23.100Z,101785.19
2019-02-20T23:49:53.653Z,101783.96
2019-02-20T23:52:24.197Z,101779.36
2019-02-20T23:54:54.739Z,101779.82
2019-02-20T23:57:25.448Z,101777.73
2019-02-20T23:59:55.980Z,101783.09
